createdAt,value
2023-03-15T00:00:00.560Z,99043.94
2023-03-15T00:02:28.793Z,99048.25
2023-03-15T00:04:58.312Z,99044.75
2023-03-15T00:07:26.354Z,99050.94
2023-03-15T00:09:54.669Z,99045.94
2023-03-15T00:12:24.125Z,99066.97
2023-03-15T00:14:52.820Z,99045.44
2023-03-15T00:17:22.898Z,99059.97
2023-03-15T00:19:51.302Z,98959.81
2023-03-15T00:22:23.342Z,99061.63
2023-03-15T00:24:51.500Z,99039.94
2023-03-15T00:27:19.565Z,99062.66
2023-03-15T00:29:47.721Z,99077.69
2023-03-15T00:32:15.804Z,99084.84
2023-03-15T00:34:49.303Z,99079.66
2023-03-15T00:37:19.722Z,99085.88
2023-03-15T00:39:49.829Z,99085.88
2023-03-15T00:42:17.937Z,99080.69
2023-03-15T00:44:46.595Z,99092.06
2023-03-15T00:47:16.212Z,99097.41
2023-03-15T00:49:44.299Z,99103.56
2023-03-15T00:52:13.013Z,99102.75
2023-03-15T00:54:41.902Z,99106.06
2023-03-15T00:57:11.547Z,98963.13
2023-03-15T00:59:39.631Z,99027.28
2023-03-15T01:02:08.048Z,99119.63
2023-03-15T01:04:36.655Z,99118.81
2023-03-15T01:07:04.948Z,99120.47
2023-03-15T01:09:33.161Z,99124.97
2023-03-15T01:12:01.201Z,98971.31
2023-03-15T01:14:30.668Z,99134.84
2023-03-15T01:16:58.723Z,99134.84
2023-03-15T01:19:26.742Z,99139.19
2023-03-15T01:21:55.000Z,99135.66
2023-03-15T01:24:23.069Z,99134.84
2023-03-15T01:26:51.111Z,99141.84
2023-03-15T01:29:19.251Z,99142.69
2023-03-15T01:31:48.799Z,99141.84
2023-03-15T01:34:16.888Z,99152.53
2023-03-15T01:36:44.997Z,99155.22
2023-03-15T01:39:13.029Z,99148.84
2023-03-15T01:41:41.109Z,99157.91
2023-03-15T01:44:13.740Z,99163.25
2023-03-15T01:46:41.961Z,99156.56
2023-03-15T01:49:15.190Z,99163.25
2023-03-15T01:51:47.730Z,99163.25
2023-03-15T01:54:20.637Z,99158.56
2023-03-15T01:56:52.876Z,99180.13
2023-03-15T01:59:26.140Z,99166.75
2023-03-15T02:01:56.335Z,99046.97
2023-03-15T02:04:30.191Z,99142.38
2023-03-15T02:07:00.816Z,98997.34
2023-03-15T02:09:36.663Z,99179.28
2023-03-15T02:12:06.378Z,99182.97
2023-03-15T02:14:35.480Z,99181.31
2023-03-15T02:17:04.049Z,99191.97
2023-03-15T02:19:46.640Z,99189.13
2023-03-15T02:22:29.081Z,99188.31
2023-03-15T02:25:05.370Z,99191.97
2023-03-15T02:27:36.847Z,99190.31
2023-03-15T02:30:07.129Z,99193.66
2023-03-15T02:32:35.718Z,99199.03
2023-03-15T02:35:03.985Z,99203.34
2023-03-15T02:37:32.128Z,99098.59
2023-03-15T02:40:00.274Z,99206.03
2023-03-15T02:42:29.256Z,99208.03
2023-03-15T02:44:59.390Z,99209.72
2023-03-15T02:47:32.763Z,99227.41
2023-03-15T02:50:01.256Z,99220.41
2023-03-15T02:52:29.408Z,99224.75
2023-03-15T02:54:57.546Z,99232.75
2023-03-15T02:57:25.683Z,99236.44
2023-03-15T02:59:55.143Z,99224.44
2023-03-15T03:02:24.989Z,99231.91
2023-03-15T03:04:53.882Z,99242.63
2023-03-15T03:07:21.945Z,99241.81
2023-03-15T03:09:50.292Z,99164.22
2023-03-15T03:12:18.399Z,99252.34
2023-03-15T03:14:46.602Z,99240.78
2023-03-15T03:17:14.701Z,99253.31
2023-03-15T03:19:44.384Z,99248.81
2023-03-15T03:22:13.613Z,99182.59
2023-03-15T03:24:46.244Z,99270.22
2023-03-15T03:27:16.153Z,99261.16
2023-03-15T03:29:44.934Z,99261.50
2023-03-15T03:32:13.386Z,99250.81
2023-03-15T03:34:41.584Z,99184.91
2023-03-15T03:37:11.599Z,99272.19
2023-03-15T03:39:39.917Z,99200.94
2023-03-15T03:42:08.330Z,99282.56
2023-03-15T03:44:36.463Z,99194.56
2023-03-15T03:47:04.728Z,99139.34
2023-03-15T03:49:32.787Z,99302.28
2023-03-15T03:52:01.457Z,99275.84
2023-03-15T03:54:32.270Z,99309.31
2023-03-15T03:57:00.468Z,99310.31
2023-03-15T03:59:28.665Z,99312.13
2023-03-15T04:01:56.790Z,99126.44
2023-03-15T04:04:26.434Z,99316.69
2023-03-15T04:06:54.689Z,99316.69
2023-03-15T04:09:25.204Z,99329.03
2023-03-15T04:11:54.717Z,99318.34
2023-03-15T04:14:22.807Z,99324.69
2023-03-15T04:16:50.900Z,99334.38
2023-03-15T04:19:18.959Z,99333.53
2023-03-15T04:21:47.830Z,99345.94
2023-03-15T04:24:16.074Z,99345.06
2023-03-15T04:26:44.115Z,99350.44
2023-03-15T04:29:15.468Z,99350.44
2023-03-15T04:31:43.592Z,99353.09
2023-03-15T04:34:11.735Z,99348.75
2023-03-15T04:36:40.029Z,99327.34
2023-03-15T04:39:08.273Z,99354.94
2023-03-15T04:41:37.288Z,99349.59
2023-03-15T04:44:06.248Z,99359.47
2023-03-15T04:46:35.838Z,99359.47
2023-03-15T04:49:05.245Z,99363.81
2023-03-15T04:51:34.513Z,99368.13
2023-03-15T04:54:03.128Z,99366.47
2023-03-15T04:56:32.095Z,99283.75
2023-03-15T04:59:00.341Z,99385.88
2023-03-15T05:01:31.598Z,99380.53
2023-03-15T05:04:01.292Z,99385.88
2023-03-15T05:06:30.223Z,99340.66
2023-03-15T05:08:58.521Z,99390.38
2023-03-15T05:11:26.793Z,99391.22
2023-03-15T05:13:55.183Z,99386.19
2023-03-15T05:16:23.340Z,99396.56
2023-03-15T05:18:51.561Z,99398.56
2023-03-15T05:21:21.197Z,99400.22
2023-03-15T05:23:49.334Z,99253.84
2023-03-15T05:26:17.506Z,99409.25
2023-03-15T05:28:46.019Z,99409.59
2023-03-15T05:31:14.285Z,99410.28
2023-03-15T05:33:47.211Z,99421.63
2023-03-15T05:36:17.633Z,99413.25
2023-03-15T05:38:47.312Z,99424.13
2023-03-15T05:41:17.971Z,99417.97
2023-03-15T05:43:46.517Z,99353.22
2023-03-15T05:46:14.964Z,99435.00
2023-03-15T05:48:43.330Z,99443.00
2023-03-15T05:51:11.564Z,99441.34
2023-03-15T05:53:39.704Z,99349.53
2023-03-15T05:56:09.899Z,99444.88
2023-03-15T05:58:38.170Z,99361.59
2023-03-15T06:01:06.584Z,99459.06
2023-03-15T06:03:34.807Z,99363.91
2023-03-15T06:06:03.540Z,99462.75
2023-03-15T06:08:31.740Z,99481.47
2023-03-15T06:10:59.894Z,99473.44
2023-03-15T06:13:29.550Z,99472.44
2023-03-15T06:15:57.666Z,99489.47
2023-03-15T06:18:25.865Z,99484.13
2023-03-15T06:20:54.033Z,99493.16
2023-03-15T06:23:22.209Z,99493.16
2023-03-15T06:25:50.549Z,99500.19
2023-03-15T06:28:18.848Z,99498.53
2023-03-15T06:30:48.556Z,99507.50
2023-03-15T06:33:16.960Z,99503.88
2023-03-15T06:35:47.003Z,99509.53
2023-03-15T06:38:15.887Z,99430.06
2023-03-15T06:40:44.752Z,99514.56
2023-03-15T06:43:18.401Z,99416.28
2023-03-15T06:45:48.416Z,99378.91
2023-03-15T06:48:16.638Z,99416.13
2023-03-15T06:50:47.686Z,99538.94
2023-03-15T06:53:16.342Z,99544.94
2023-03-15T06:55:44.494Z,99555.66
2023-03-15T06:58:12.976Z,99382.84
2023-03-15T07:00:41.682Z,99563.69
2023-03-15T07:03:11.279Z,99565.53
2023-03-15T07:05:39.392Z,99396.97
2023-03-15T07:08:07.552Z,99382.69
2023-03-15T07:10:36.679Z,99565.53
2023-03-15T07:13:07.067Z,99571.69
2023-03-15T07:15:37.227Z,99574.53
2023-03-15T07:18:05.517Z,99577.91
2023-03-15T07:20:37.638Z,99580.72
2023-03-15T07:23:06.009Z,99500.19
2023-03-15T07:25:42.240Z,99415.59
2023-03-15T07:28:20.331Z,99602.13
2023-03-15T07:30:54.829Z,99500.31
2023-03-15T07:33:24.353Z,99515.19
2023-03-15T07:35:55.056Z,99601.78
2023-03-15T07:38:24.110Z,99619.19
2023-03-15T07:40:52.496Z,99621.84
2023-03-15T07:43:20.750Z,99627.19
2023-03-15T07:45:49.089Z,99638.72
2023-03-15T07:48:17.234Z,99645.75
2023-03-15T07:50:46.883Z,99564.44
2023-03-15T07:53:16.809Z,99657.28
2023-03-15T07:55:45.232Z,99651.25
2023-03-15T07:58:13.335Z,99611.97
2023-03-15T08:00:41.640Z,99657.28
2023-03-15T08:03:10.240Z,99672.50
2023-03-15T08:05:38.769Z,99575.66
2023-03-15T08:08:07.668Z,99577.94
2023-03-15T08:10:37.346Z,99667.16
2023-03-15T08:13:05.519Z,99672.81
2023-03-15T08:15:33.625Z,99677.00
2023-03-15T08:18:01.661Z,99685.03
2023-03-15T08:20:30.124Z,99694.72
2023-03-15T08:22:58.426Z,99687.03
2023-03-15T08:25:26.797Z,99692.19
2023-03-15T08:27:56.573Z,99695.06
2023-03-15T08:30:25.526Z,99700.06
2023-03-15T08:32:53.781Z,99700.06
2023-03-15T08:35:23.261Z,99694.72
2023-03-15T08:37:52.613Z,99704.59
2023-03-15T08:40:25.009Z,99699.25
2023-03-15T08:42:53.839Z,99718.94
2023-03-15T08:45:24.293Z,99711.75
2023-03-15T08:47:56.100Z,99718.13
2023-03-15T08:50:24.556Z,99728.81
2023-03-15T08:52:52.896Z,99719.78
2023-03-15T08:55:21.442Z,99735.84
2023-03-15T08:57:49.583Z,99642.97
2023-03-15T09:00:20.969Z,99750.22
2023-03-15T09:02:52.237Z,99750.22
2023-03-15T09:05:22.280Z,99752.19
2023-03-15T09:07:53.283Z,99767.94
2023-03-15T09:10:22.442Z,99685.72
2023-03-15T09:12:53.985Z,99770.59
2023-03-15T09:15:22.182Z,99769.59
2023-03-15T09:17:52.478Z,99782.97
2023-03-15T09:20:23.354Z,99769.94
2023-03-15T09:22:53.536Z,99753.19
2023-03-15T09:25:22.284Z,99801.69
2023-03-15T09:27:51.156Z,99794.66
2023-03-15T09:30:20.163Z,99791.63
2023-03-15T09:32:48.780Z,99729.41
2023-03-15T09:35:20.653Z,99802.53
2023-03-15T09:37:49.958Z,99798.34
2023-03-15T09:40:21.422Z,99807.03
2023-03-15T09:43:00.261Z,99816.91
2023-03-15T09:45:37.689Z,99821.41
2023-03-15T09:48:12.179Z,99816.06
2023-03-15T09:50:47.771Z,99837.47
2023-03-15T09:53:20.324Z,99832.13
2023-03-15T09:55:52.020Z,99842.81
2023-03-15T09:58:25.807Z,99827.00
2023-03-15T10:00:58.014Z,99780.69
2023-03-15T10:03:35.130Z,99746.84
2023-03-15T10:06:08.740Z,99769.34
2023-03-15T10:08:36.916Z,99845.47
2023-03-15T10:11:15.759Z,99851.53
2023-03-15T10:13:59.774Z,99865.88
2023-03-15T10:16:40.678Z,99863.19
2023-03-15T10:19:18.843Z,99858.84
2023-03-15T10:21:59.915Z,99865.88
2023-03-15T10:24:37.240Z,99859.16
2023-03-15T10:27:15.972Z,99875.19
2023-03-15T10:29:45.533Z,99885.59
2023-03-15T10:32:19.085Z,99878.56
2023-03-15T10:34:50.848Z,99889.28
2023-03-15T10:37:23.738Z,99887.28
2023-03-15T10:39:57.179Z,99895.63
2023-03-15T10:42:30.447Z,99894.63
2023-03-15T10:45:00.190Z,99905.31
2023-03-15T10:47:28.900Z,99914.03
2023-03-15T10:49:59.080Z,99919.38
2023-03-15T10:52:46.815Z,99909.00
2023-03-15T10:55:18.175Z,99914.03
2023-03-15T10:57:54.965Z,99847.91
2023-03-15T11:00:30.216Z,99926.00
2023-03-15T11:03:06.070Z,99932.88
2023-03-15T11:05:41.603Z,99930.41
2023-03-15T11:08:16.053Z,99768.09
2023-03-15T11:10:45.399Z,99766.28
2023-03-15T11:13:20.618Z,99941.75
2023-03-15T11:15:56.599Z,99852.72
2023-03-15T11:18:31.042Z,99962.16
2023-03-15T11:20:59.752Z,99791.84
2023-03-15T11:23:36.109Z,99957.81
2023-03-15T11:26:04.497Z,99970.19
2023-03-15T11:28:36.783Z,99978.22
2023-03-15T11:31:06.651Z,99975.53
2023-03-15T11:33:43.287Z,99995.97
2023-03-15T11:36:17.260Z,99896.59
2023-03-15T11:38:47.739Z,99994.25
2023-03-15T11:41:29.023Z,99866.94
2023-03-15T11:44:04.053Z,99995.97
2023-03-15T11:46:37.172Z,99995.97
2023-03-15T11:49:14.518Z,100000.47
2023-03-15T11:51:42.905Z,100006.66
2023-03-15T11:54:15.971Z,100005.81
2023-03-15T11:56:56.075Z,100015.66
2023-03-15T11:59:29.498Z,100012.00
2023-03-15T12:02:00.301Z,100017.66
2023-03-15T12:04:44.210Z,99909.81
2023-03-15T12:07:38.443Z,100031.69
2023-03-15T12:10:46.674Z,100025.53
2023-03-15T12:13:30.372Z,100016.28
2023-03-15T12:15:59.416Z,100029.16
2023-03-15T12:18:32.116Z,100028.34
2023-03-15T12:21:13.239Z,100033.69
2023-03-15T12:23:45.381Z,100034.00
2023-03-15T12:26:25.205Z,100035.38
2023-03-15T12:29:06.910Z,100035.38
2023-03-15T12:31:57.318Z,100042.41
2023-03-15T12:34:32.964Z,100043.41
2023-03-15T12:37:06.133Z,100051.41
2023-03-15T12:39:47.177Z,100050.56
2023-03-15T12:43:07.636Z,100042.41
2023-03-15T12:45:41.348Z,100055.09
2023-03-15T12:48:29.569Z,100058.78
2023-03-15T12:51:01.255Z,99947.50
2023-03-15T12:53:38.944Z,100060.44
2023-03-15T12:56:37.377Z,100067.47
2023-03-15T12:59:17.094Z,100075.50
2023-03-15T13:01:46.292Z,100071.13
2023-03-15T13:04:15.481Z,100067.47
2023-03-15T13:06:59.349Z,100078.16
2023-03-15T13:09:58.084Z,100080.16
2023-03-15T13:12:30.548Z,100089.88
2023-03-15T13:15:04.843Z,100089.88
2023-03-15T13:17:42.615Z,100092.53
2023-03-15T13:20:42.706Z,100098.72
2023-03-15T13:23:19.886Z,100000.09
2023-03-15T13:25:55.958Z,100102.38
2023-03-15T13:28:26.609Z,100104.91
2023-03-15T13:30:57.723Z,100115.63
2023-03-15T13:33:28.928Z,100104.91
2023-03-15T13:36:01.158Z,100045.75
2023-03-15T13:38:33.130Z,100025.53
2023-03-15T13:41:03.805Z,100125.31
2023-03-15T13:43:33.819Z,100122.63
2023-03-15T13:46:04.088Z,100127.97
2023-03-15T13:48:34.772Z,99993.94
2023-03-15T13:51:07.243Z,100125.31
2023-03-15T13:53:48.972Z,100136.00
2023-03-15T13:56:21.083Z,100138.69
2023-03-15T13:58:52.212Z,100144.03
2023-03-15T14:01:23.520Z,100143.22
2023-03-15T14:03:57.969Z,100029.34
2023-03-15T14:06:27.690Z,100147.72
2023-03-15T14:09:02.034Z,99983.38
2023-03-15T14:11:37.484Z,100147.72
2023-03-15T14:14:23.232Z,100139.28
2023-03-15T14:17:05.006Z,100156.44
2023-03-15T14:19:36.946Z,100154.72
2023-03-15T14:22:15.561Z,100157.56
2023-03-15T14:24:46.139Z,100151.66
2023-03-15T14:27:18.637Z,100061.81
2023-03-15T14:29:50.681Z,100167.44
2023-03-15T14:32:29.949Z,100162.06
2023-03-15T14:35:03.842Z,99968.31
2023-03-15T14:37:37.117Z,100085.03
2023-03-15T14:40:10.254Z,100176.44
2023-03-15T14:42:38.455Z,100174.59
2023-03-15T14:45:08.142Z,100172.78
2023-03-15T14:47:55.075Z,100171.09
2023-03-15T14:50:26.013Z,100180.94
2023-03-15T14:52:55.146Z,100024.25
2023-03-15T14:55:25.997Z,100205.88
2023-03-15T14:57:54.163Z,100198.13
2023-03-15T15:00:23.215Z,100111.88
2023-03-15T15:02:55.067Z,100203.75
2023-03-15T15:05:27.060Z,100192.22
2023-03-15T15:08:03.150Z,100206.44
2023-03-15T15:10:32.160Z,100208.13
2023-03-15T15:13:06.308Z,100140.59
2023-03-15T15:15:53.588Z,100212.31
2023-03-15T15:18:25.983Z,100204.31
2023-03-15T15:20:56.137Z,100220.19
2023-03-15T15:23:28.146Z,100221.19
2023-03-15T15:25:59.300Z,100219.25
2023-03-15T15:28:35.437Z,100225.56
2023-03-15T15:31:06.349Z,100133.97
2023-03-15T15:33:36.609Z,100229.94
2023-03-15T15:36:05.013Z,100229.94
2023-03-15T15:38:38.859Z,100232.63
2023-03-15T15:41:12.905Z,100139.59
2023-03-15T15:43:41.152Z,100235.84
2023-03-15T15:46:12.429Z,100241.19
2023-03-15T15:48:42.577Z,100244.84
2023-03-15T15:51:19.817Z,100240.19
2023-03-15T15:53:48.213Z,100249.91
2023-03-15T15:56:16.932Z,100249.91
2023-03-15T15:58:46.566Z,100077.94
2023-03-15T16:01:16.643Z,100254.69
2023-03-15T16:03:46.437Z,100254.69
2023-03-15T16:06:19.062Z,100261.72
2023-03-15T16:08:48.068Z,100165.03
2023-03-15T16:11:18.044Z,100081.31
2023-03-15T16:13:49.135Z,100263.72
2023-03-15T16:16:18.651Z,100270.75
2023-03-15T16:18:48.351Z,100261.84
2023-03-15T16:21:18.767Z,100162.66
2023-03-15T16:23:52.106Z,100269.34
2023-03-15T16:26:20.302Z,100281.44
2023-03-15T16:28:51.957Z,100291.84
2023-03-15T16:31:22.040Z,100159.75
2023-03-15T16:33:51.713Z,100291.28
2023-03-15T16:36:21.135Z,100294.69
2023-03-15T16:38:49.908Z,100292.69
2023-03-15T16:41:19.325Z,100301.47
2023-03-15T16:43:49.238Z,100307.69
2023-03-15T16:46:18.000Z,100310.22
2023-03-15T16:48:46.545Z,100315.56
2023-03-15T16:51:17.820Z,100315.56
2023-03-15T16:53:46.257Z,100314.56
2023-03-15T16:56:16.464Z,100172.75
2023-03-15T16:58:45.523Z,100330.34
2023-03-15T17:01:13.663Z,100322.31
2023-03-15T17:03:41.766Z,100327.66
2023-03-15T17:06:20.285Z,100331.34
2023-03-15T17:08:49.037Z,100332.44
2023-03-15T17:11:18.331Z,100332.56
2023-03-15T17:13:46.500Z,100339.88
2023-03-15T17:16:16.503Z,100355.94
2023-03-15T17:18:44.966Z,100346.19
2023-03-15T17:21:15.639Z,100356.22
2023-03-15T17:23:46.289Z,100358.91
2023-03-15T17:26:16.987Z,100357.19
2023-03-15T17:28:45.760Z,100360.84
2023-03-15T17:31:24.482Z,100362.81
2023-03-15T17:33:53.566Z,100364.53
2023-03-15T17:36:23.662Z,100368.16
2023-03-15T17:38:54.409Z,100368.16
2023-03-15T17:41:25.589Z,100374.38
2023-03-15T17:43:53.975Z,100364.53
2023-03-15T17:46:28.289Z,100357.72
2023-03-15T17:48:57.253Z,100286.44
2023-03-15T17:51:28.257Z,100378.03
2023-03-15T17:53:59.713Z,100384.22
2023-03-15T17:56:28.235Z,100387.88
2023-03-15T17:58:56.462Z,100406.59
2023-03-15T18:01:27.492Z,100398.59
2023-03-15T18:03:57.365Z,100403.06
2023-03-15T18:06:25.719Z,100236.06
2023-03-15T18:08:54.049Z,100403.94
2023-03-15T18:11:29.051Z,100403.94
2023-03-15T18:13:57.438Z,100406.47
2023-03-15T18:16:25.933Z,100392.78
2023-03-15T18:18:54.082Z,100410.97
2023-03-15T18:21:24.660Z,100413.78
2023-03-15T18:23:53.266Z,100419.13
2023-03-15T18:26:22.676Z,100419.97
2023-03-15T18:28:52.473Z,100422.66
2023-03-15T18:31:22.061Z,100410.97
2023-03-15T18:33:51.880Z,100420.97
2023-03-15T18:36:20.438Z,100431.69
2023-03-15T18:38:48.835Z,100433.50
2023-03-15T18:41:20.682Z,100437.03
2023-03-15T18:43:51.595Z,100445.06
2023-03-15T18:46:22.697Z,100435.31
2023-03-15T18:48:53.543Z,100398.22
2023-03-15T18:51:25.777Z,100450.41
2023-03-15T18:53:54.202Z,100446.72
2023-03-15T18:56:25.024Z,100446.72
2023-03-15T18:58:54.201Z,100432.03
2023-03-15T19:01:24.530Z,100461.09
2023-03-15T19:03:53.772Z,100390.84
2023-03-15T19:06:22.615Z,100471.81
2023-03-15T19:08:54.291Z,100494.88
2023-03-15T19:11:24.156Z,100495.88
2023-03-15T19:13:52.557Z,100378.13
2023-03-15T19:16:21.623Z,100482.50
2023-03-15T19:18:52.137Z,100489.25
2023-03-15T19:21:21.036Z,100492.66
2023-03-15T19:23:49.257Z,100490.69
2023-03-15T19:26:17.386Z,100496.78
2023-03-15T19:28:45.589Z,100502.84
2023-03-15T19:31:13.869Z,100504.53
2023-03-15T19:33:42.145Z,100496.56
2023-03-15T19:36:11.968Z,100514.13
2023-03-15T19:38:40.096Z,100515.81
2023-03-15T19:41:12.508Z,100520.31
2023-03-15T19:43:43.417Z,100419.25
2023-03-15T19:46:14.162Z,100441.53
2023-03-15T19:48:42.908Z,100533.56
2023-03-15T19:51:12.435Z,100532.69
2023-03-15T19:53:41.035Z,100545.13
2023-03-15T19:56:10.776Z,100518.50
2023-03-15T19:58:39.381Z,100547.81
2023-03-15T20:01:07.646Z,100568.22
2023-03-15T20:03:35.861Z,100557.50
2023-03-15T20:06:09.128Z,100559.19
2023-03-15T20:08:39.385Z,100564.53
2023-03-15T20:11:07.856Z,100566.25
2023-03-15T20:13:36.806Z,100568.94
2023-03-15T20:16:06.575Z,100568.81
2023-03-15T20:18:34.796Z,100579.50
2023-03-15T20:21:02.903Z,100578.66
2023-03-15T20:23:31.094Z,100588.50
2023-03-15T20:26:09.930Z,100390.31
2023-03-15T20:28:38.151Z,100584.00
2023-03-15T20:31:09.906Z,100588.22
2023-03-15T20:33:38.092Z,100596.41
2023-03-15T20:36:07.055Z,100517.00
2023-03-15T20:38:37.244Z,100612.44
2023-03-15T20:41:07.845Z,100611.50
2023-03-15T20:43:36.526Z,100616.13
2023-03-15T20:46:05.089Z,100610.03
2023-03-15T20:48:36.900Z,100628.78
2023-03-15T20:51:06.741Z,100618.34
2023-03-15T20:53:36.922Z,100627.34
2023-03-15T20:56:06.529Z,100632.13
2023-03-15T20:58:36.344Z,100636.38
2023-03-15T21:01:06.336Z,100460.34
2023-03-15T21:03:35.284Z,100642.00
2023-03-15T21:06:04.486Z,100647.47
2023-03-15T21:08:33.325Z,100556.03
2023-03-15T21:11:01.711Z,100648.53
2023-03-15T21:13:30.323Z,100663.63
2023-03-15T21:16:00.523Z,100653.72
2023-03-15T21:18:28.754Z,100678.81
2023-03-15T21:20:58.130Z,100685.28
2023-03-15T21:23:27.953Z,100701.09
2023-03-15T21:25:56.617Z,100694.28
2023-03-15T21:28:24.911Z,100703.03
2023-03-15T21:30:53.731Z,100699.63
2023-03-15T21:33:25.012Z,100697.22
2023-03-15T21:35:53.947Z,100632.31
2023-03-15T21:38:22.109Z,100717.41
2023-03-15T21:40:52.693Z,100717.41
2023-03-15T21:43:21.422Z,100633.88
2023-03-15T21:45:49.706Z,100735.13
2023-03-15T21:48:18.570Z,100726.91
2023-03-15T21:50:48.217Z,100726.38
2023-03-15T21:53:16.641Z,100737.09
2023-03-15T21:55:46.372Z,100738.06
2023-03-15T21:58:14.725Z,100739.06
2023-03-15T22:00:43.127Z,100734.53
2023-03-15T22:03:13.585Z,100738.06
2023-03-15T22:05:42.046Z,100744.41
2023-03-15T22:08:11.653Z,100749.78
2023-03-15T22:10:39.843Z,100755.13
2023-03-15T22:13:08.002Z,100759.47
2023-03-15T22:15:36.197Z,100767.50
2023-03-15T22:18:04.618Z,100773.84
2023-03-15T22:20:32.753Z,100776.53
2023-03-15T22:23:04.840Z,100776.53
2023-03-15T22:25:34.752Z,100780.16
2023-03-15T22:28:03.024Z,100790.03
2023-03-15T22:30:31.557Z,100676.69
2023-03-15T22:32:59.878Z,100798.88
2023-03-15T22:35:28.235Z,100710.16
2023-03-15T22:37:57.122Z,100806.34
2023-03-15T22:40:26.759Z,100821.28
2023-03-15T22:42:57.582Z,100815.91
2023-03-15T22:45:26.182Z,100820.41
2023-03-15T22:47:54.613Z,100831.97
2023-03-15T22:50:23.279Z,100828.31
2023-03-15T22:52:51.926Z,100831.13
2023-03-15T22:55:20.809Z,100839.00
2023-03-15T22:57:49.310Z,100848.03
2023-03-15T23:00:22.492Z,100846.34
2023-03-15T23:02:51.123Z,100841.00
2023-03-15T23:05:20.076Z,100847.16
2023-03-15T23:07:48.545Z,100700.88
2023-03-15T23:10:16.782Z,100845.72
2023-03-15T23:12:44.882Z,100856.19
2023-03-15T23:15:14.967Z,100857.28
2023-03-15T23:17:46.667Z,100850.50
2023-03-15T23:20:15.802Z,100861.41
2023-03-15T23:22:43.976Z,100865.06
2023-03-15T23:25:14.291Z,100878.44
2023-03-15T23:27:42.738Z,100881.13
2023-03-15T23:30:14.421Z,100889.16
2023-03-15T23:32:44.466Z,100889.41
2023-03-15T23:35:14.933Z,100882.94
2023-03-15T23:37:43.683Z,100891.09
2023-03-15T23:40:15.226Z,100892.78
2023-03-15T23:42:44.016Z,100734.66
2023-03-15T23:45:13.493Z,100905.44
2023-03-15T23:47:41.603Z,100914.44
2023-03-15T23:50:13.834Z,100909.19
2023-03-15T23:52:42.372Z,100912.50
2023-03-15T23:55:11.698Z,100916.16
2023-03-15T23:57:40.277Z,100917.84
